createdAt,value
2017-04-29T00:00:00.171Z,5.36
2017-04-29T00:00:40.844Z,5.41
2017-04-29T00:01:21.477Z,5.3
2017-04-29T00:02:02.133Z,5.26
2017-04-29T00:02:42.794Z,5.26
2017-04-29T00:03:23.445Z,5.23
2017-04-29T00:04:04.097Z,5.2
2017-04-29T00:04:45.773Z,5.25
2017-04-29T00:05:26.429Z,5.14
2017-04-29T00:06:07.069Z,5.14
2017-04-29T00:06:47.663Z,5.15
2017-04-29T00:07:28.296Z,5.08
2017-04-29T00:08:08.881Z,5.15
2017-04-29T00:08:49.490Z,5.12
2017-04-29T00:09:30.041Z,5.11
2017-04-29T00:10:10.703Z,5.11
2017-04-29T00:10:51.294Z,5.08
2017-04-29T00:11:31.892Z,5.15
2017-04-29T00:12:12.457Z,5.1
2017-04-29T00:12:53.119Z,5.14
2017-04-29T00:13:33.748Z,5.17
2017-04-29T00:14:14.320Z,5.25
2017-04-29T00:14:54.985Z,5.25
2017-04-29T00:15:36.630Z,5.32
2017-04-29T00:16:17.193Z,5.32
2017-04-29T00:16:57.864Z,5.29
2017-04-29T00:17:38.511Z,5.33
2017-04-29T00:18:19.141Z,5.36
2017-04-29T00:18:59.841Z,5.32
2017-04-29T00:19:40.461Z,5.43
2017-04-29T00:20:21.117Z,5.39
2017-04-29T00:21:01.764Z,5.36
2017-04-29T00:21:42.428Z,5.36
2017-04-29T00:22:23.096Z,5.43
2017-04-29T00:23:03.733Z,5.61
2017-04-29T00:23:44.389Z,5.47
2017-04-29T00:24:25.025Z,5.51
2017-04-29T00:25:05.682Z,5.5
2017-04-29T00:25:46.349Z,5.47
2017-04-29T00:26:26.997Z,5.5
2017-04-29T00:27:07.576Z,5.48
2017-04-29T00:27:48.179Z,5.5
2017-04-29T00:28:28.749Z,5.56
2017-04-29T00:29:09.389Z,5.57
2017-04-29T00:29:51.017Z,5.57
2017-04-29T00:30:31.611Z,5.57
2017-04-29T00:31:12.194Z,5.48
2017-04-29T00:31:52.854Z,5.5
2017-04-29T00:32:33.475Z,5.51
2017-04-29T00:33:15.160Z,5.57
2017-04-29T00:33:55.841Z,5.46
2017-04-29T00:34:37.489Z,5.39
2017-04-29T00:35:18.144Z,5.44
2017-04-29T00:35:59.619Z,5.35
2017-04-29T00:36:40.285Z,5.46
2017-04-29T00:37:20.967Z,5.43
2017-04-29T00:38:01.649Z,5.43
2017-04-29T00:38:42.237Z,5.39
2017-04-29T00:39:22.905Z,5.39
2017-04-29T00:40:03.564Z,5.41
2017-04-29T00:40:44.161Z,5.43
2017-04-29T00:41:24.745Z,5.43
2017-04-29T00:42:06.414Z,5.39
2017-04-29T00:42:47.060Z,5.38
2017-04-29T00:43:27.719Z,5.39
2017-04-29T00:44:08.351Z,5.39
2017-04-29T00:44:49.014Z,5.46
2017-04-29T00:45:29.677Z,5.53
2017-04-29T00:46:10.331Z,5.48
2017-04-29T00:46:50.973Z,5.38
2017-04-29T00:47:31.635Z,5.47
2017-04-29T00:48:13.315Z,5.47
2017-04-29T00:48:53.965Z,5.41
2017-04-29T00:49:34.619Z,5.39
2017-04-29T00:50:15.263Z,5.46
2017-04-29T00:50:55.925Z,5.47
2017-04-29T00:51:36.586Z,5.44
2017-04-29T00:52:17.261Z,5.43
2017-04-29T00:52:57.858Z,5.38
2017-04-29T00:53:38.446Z,5.46
2017-04-29T00:54:19.135Z,5.51
2017-04-29T00:54:59.808Z,5.39
2017-04-29T00:55:40.471Z,5.32
2017-04-29T00:56:21.034Z,5.41
2017-04-29T00:57:01.689Z,5.41
2017-04-29T00:57:42.381Z,5.36
2017-04-29T00:58:23.086Z,5.39
2017-04-29T00:59:03.687Z,5.46
2017-04-29T00:59:44.305Z,5.41
2017-04-29T01:00:24.909Z,5.39
2017-04-29T01:01:05.591Z,5.43
2017-04-29T01:01:46.155Z,5.44
2017-04-29T01:02:26.805Z,5.43
2017-04-29T01:03:07.500Z,5.39
2017-04-29T01:03:49.109Z,5.44
2017-04-29T01:04:29.725Z,5.39
2017-04-29T01:05:10.357Z,5.41
2017-04-29T01:05:51.023Z,5.39
2017-04-29T01:06:31.721Z,5.36
2017-04-29T01:07:12.274Z,5.39
2017-04-29T01:07:52.942Z,5.38
2017-04-29T01:08:33.613Z,5.33
2017-04-29T01:09:15.267Z,5.3
2017-04-29T01:09:56.965Z,5.35
2017-04-29T01:10:37.598Z,5.35
2017-04-29T01:11:18.351Z,5.41
2017-04-29T01:11:59.025Z,5.44
2017-04-29T01:12:39.736Z,5.35
2017-04-29T01:13:21.425Z,5.35
2017-04-29T01:14:02.002Z,5.33
2017-04-29T01:14:42.643Z,5.43
2017-04-29T01:15:23.329Z,5.43
2017-04-29T01:16:03.907Z,5.35
2017-04-29T01:16:44.462Z,5.25
2017-04-29T01:17:26.172Z,5.25
2017-04-29T01:18:06.808Z,5.29
2017-04-29T01:18:47.393Z,5.29
2017-04-29T01:19:29.050Z,5.29
2017-04-29T01:20:10.724Z,5.28
2017-04-29T01:20:51.311Z,5.28
2017-04-29T01:21:32.970Z,5.29
2017-04-29T01:22:14.622Z,5.3
2017-04-29T01:22:55.279Z,5.35
2017-04-29T01:23:35.928Z,5.33
2017-04-29T01:24:16.587Z,5.32
2017-04-29T01:24:57.232Z,5.33
2017-04-29T01:25:37.884Z,5.33
2017-04-29T01:26:18.539Z,5.33
2017-04-29T01:26:59.188Z,5.35
2017-04-29T01:27:39.846Z,5.36
2017-04-29T01:28:21.521Z,5.29
2017-04-29T01:29:03.204Z,5.38
2017-04-29T01:29:43.856Z,5.35
2017-04-29T01:30:24.500Z,5.35
2017-04-29T01:31:05.154Z,5.33
2017-04-29T01:31:45.807Z,5.43
2017-04-29T01:32:26.386Z,5.33
2017-04-29T01:33:08.050Z,5.38
2017-04-29T01:33:48.724Z,5.43
2017-04-29T01:34:29.271Z,5.38
2017-04-29T01:35:09.917Z,5.35
2017-04-29T01:35:50.545Z,5.48
2017-04-29T01:36:31.107Z,5.46
2017-04-29T01:37:11.767Z,5.39
2017-04-29T01:37:52.400Z,5.47
2017-04-29T01:38:32.983Z,5.46
2017-04-29T01:39:14.655Z,5.5
2017-04-29T01:39:55.282Z,5.48
2017-04-29T01:40:35.865Z,5.46
2017-04-29T01:41:16.497Z,5.5
2017-04-29T01:41:57.142Z,5.46
2017-04-29T01:42:37.704Z,5.54
2017-04-29T01:43:18.340Z,5.47
2017-04-29T01:43:59.051Z,5.51
2017-04-29T01:44:39.753Z,5.54
2017-04-29T01:45:20.314Z,5.46
2017-04-29T01:46:00.980Z,5.44
2017-04-29T01:46:41.663Z,5.51
2017-04-29T01:47:22.374Z,5.47
2017-04-29T01:48:03.223Z,5.46
2017-04-29T01:48:45.112Z,5.61
2017-04-29T01:49:25.765Z,5.43
2017-04-29T01:50:06.519Z,5.54
2017-04-29T01:50:47.173Z,5.61
2017-04-29T01:51:28.542Z,5.48
2017-04-29T01:52:09.194Z,5.46
2017-04-29T01:52:49.843Z,5.47
2017-04-29T01:53:30.501Z,5.47
2017-04-29T01:54:11.151Z,5.51
2017-04-29T01:54:51.806Z,5.48
2017-04-29T01:55:32.467Z,5.46
2017-04-29T01:56:14.139Z,5.5
2017-04-29T01:56:54.788Z,5.59
2017-04-29T01:57:37.491Z,5.56
2017-04-29T01:58:19.167Z,5.47
2017-04-29T01:58:59.822Z,5.48
2017-04-29T01:59:40.472Z,5.57
2017-04-29T02:00:21.126Z,5.5
2017-04-29T02:01:01.779Z,5.53
2017-04-29T02:01:42.436Z,5.51
2017-04-29T02:02:22.994Z,5.54
2017-04-29T02:03:03.709Z,5.48
2017-04-29T02:03:44.391Z,5.47
2017-04-29T02:04:25.085Z,5.5
2017-04-29T02:05:05.640Z,5.51
2017-04-29T02:05:46.326Z,5.47
2017-04-29T02:06:27.006Z,5.5
2017-04-29T02:07:07.560Z,5.47
2017-04-29T02:07:48.268Z,5.56
2017-04-29T02:08:29.010Z,5.44
2017-04-29T02:09:09.580Z,5.61
2017-04-29T02:09:50.342Z,5.47
2017-04-29T02:10:31.060Z,5.46
2017-04-29T02:11:11.640Z,5.47
2017-04-29T02:11:52.397Z,5.44
2017-04-29T02:12:33.133Z,5.39
2017-04-29T02:13:13.700Z,5.38
2017-04-29T02:13:54.429Z,5.41
2017-04-29T02:14:35.183Z,5.43
2017-04-29T02:15:15.767Z,5.39
2017-04-29T02:15:56.545Z,5.39
2017-04-29T02:16:37.257Z,5.41
2017-04-29T02:17:17.849Z,5.36
2017-04-29T02:17:58.583Z,5.35
2017-04-29T02:18:39.336Z,5.33
2017-04-29T02:19:20.091Z,5.36
2017-04-29T02:20:00.858Z,5.38
2017-04-29T02:20:41.588Z,5.32
2017-04-29T02:21:22.278Z,5.32
2017-04-29T02:22:03.011Z,5.23
2017-04-29T02:22:43.702Z,5.23
2017-04-29T02:23:24.254Z,5.21
2017-04-29T02:24:04.938Z,5.25
2017-04-29T02:24:45.595Z,5.25
2017-04-29T02:25:26.176Z,5.2
2017-04-29T02:26:06.934Z,5.17
2017-04-29T02:26:47.620Z,5.2
2017-04-29T02:27:28.183Z,5.26
2017-04-29T02:28:08.892Z,5.15
2017-04-29T02:28:49.619Z,5.14
2017-04-29T02:29:30.217Z,5.2
2017-04-29T02:30:10.945Z,5.07
2017-04-29T02:30:51.681Z,5.12
2017-04-29T02:31:32.304Z,5.12
2017-04-29T02:32:12.903Z,5.14
2017-04-29T02:32:53.565Z,5.1
2017-04-29T02:33:34.239Z,5.1
2017-04-29T02:34:14.859Z,5.02
2017-04-29T02:34:55.567Z,4.93
2017-04-29T02:35:36.265Z,4.9
2017-04-29T02:36:16.951Z,4.93
2017-04-29T02:36:57.537Z,5.1
2017-04-29T02:37:38.175Z,5.02
2017-04-29T02:38:18.883Z,4.92
2017-04-29T02:39:14.284Z,4.94
2017-04-29T02:39:55.001Z,4.94
2017-04-29T02:40:35.569Z,4.99
2017-04-29T02:41:16.188Z,4.99
2017-04-29T02:41:56.795Z,4.92
2017-04-29T02:42:37.780Z,4.86
2017-04-29T02:43:18.435Z,4.89
2017-04-29T02:43:59.195Z,4.8
2017-04-29T02:44:39.843Z,4.8
2017-04-29T02:45:20.494Z,4.87
2017-04-29T02:46:01.158Z,4.78
2017-04-29T02:46:41.802Z,4.77
2017-04-29T02:47:22.350Z,4.82
2017-04-29T02:48:04.072Z,4.86
2017-04-29T02:48:44.742Z,4.8
2017-04-29T02:49:26.459Z,4.82
2017-04-29T02:50:07.028Z,4.8
2017-04-29T02:50:47.638Z,4.8
2017-04-29T02:51:28.293Z,4.82
2017-04-29T02:52:08.970Z,4.84
2017-04-29T02:52:49.542Z,4.77
2017-04-29T02:53:30.199Z,4.8
2017-04-29T02:54:10.884Z,4.86
2017-04-29T02:54:51.583Z,4.86
2017-04-29T02:55:32.163Z,4.89
2017-04-29T02:56:12.855Z,4.89
2017-04-29T02:56:53.457Z,4.89
2017-04-29T02:57:34.160Z,4.9
2017-04-29T02:58:14.721Z,4.8
2017-04-29T02:58:55.386Z,4.94
2017-04-29T02:59:36.069Z,4.89
2017-04-29T03:00:17.682Z,4.86
2017-04-29T03:00:58.262Z,4.89
2017-04-29T03:01:38.914Z,4.82
2017-04-29T03:02:19.501Z,4.89
2017-04-29T03:03:00.153Z,4.86
2017-04-29T03:03:40.810Z,4.86
2017-04-29T03:04:21.455Z,4.78
2017-04-29T03:05:02.108Z,4.89
2017-04-29T03:05:42.759Z,4.84
2017-04-29T03:06:23.416Z,4.87
2017-04-29T03:07:04.061Z,4.86
2017-04-29T03:07:44.714Z,4.89
2017-04-29T03:08:25.373Z,4.84
2017-04-29T03:09:05.926Z,4.89
2017-04-29T03:09:46.568Z,4.89
2017-04-29T03:10:27.215Z,4.87
2017-04-29T03:11:07.875Z,4.87
2017-04-29T03:11:48.525Z,4.92
2017-04-29T03:12:29.188Z,4.94
2017-04-29T03:13:09.835Z,4.99
2017-04-29T03:13:50.628Z,4.97
2017-04-29T03:14:31.249Z,4.92
2017-04-29T03:15:11.894Z,4.96
2017-04-29T03:15:52.547Z,4.9
2017-04-29T03:16:33.206Z,4.99
2017-04-29T03:17:13.879Z,5.02
2017-04-29T03:17:54.455Z,4.93
2017-04-29T03:18:35.016Z,5
2017-04-29T03:19:15.659Z,4.99
2017-04-29T03:19:56.261Z,4.96
2017-04-29T03:20:36.861Z,4.92
2017-04-29T03:21:17.424Z,5.07
2017-04-29T03:21:58.074Z,5.02
2017-04-29T03:22:38.668Z,5.07
2017-04-29T03:23:19.269Z,5.07
2017-04-29T03:23:59.824Z,5.07
2017-04-29T03:24:40.479Z,4.97
2017-04-29T03:25:21.125Z,4.94
2017-04-29T03:26:01.702Z,4.92
2017-04-29T03:26:42.353Z,5.07
2017-04-29T03:27:22.934Z,4.96
2017-04-29T03:28:03.581Z,5.07
2017-04-29T03:28:44.241Z,4.99
2017-04-29T03:29:24.888Z,5.04
2017-04-29T03:30:05.546Z,5.07
2017-04-29T03:30:46.198Z,4.99
2017-04-29T03:31:26.856Z,5
2017-04-29T03:32:07.497Z,5.07
2017-04-29T03:32:48.099Z,4.96
2017-04-29T03:33:28.691Z,5.04
2017-04-29T03:34:09.322Z,4.9
2017-04-29T03:34:49.944Z,5.08
2017-04-29T03:35:30.501Z,4.99
2017-04-29T03:36:11.071Z,4.94
2017-04-29T03:36:51.727Z,4.97
2017-04-29T03:37:32.318Z,5.02
2017-04-29T03:38:12.968Z,4.96
2017-04-29T03:38:53.626Z,4.99
2017-04-29T03:39:34.276Z,4.99
2017-04-29T03:40:14.938Z,5.07
2017-04-29T03:40:55.577Z,5.05
2017-04-29T03:41:36.236Z,4.97
2017-04-29T03:42:16.881Z,5.04
2017-04-29T03:42:57.477Z,5.04
2017-04-29T03:43:38.039Z,5.11
2017-04-29T03:44:18.718Z,5.04
2017-04-29T03:44:59.397Z,5.05
2017-04-29T03:45:39.994Z,5.04
2017-04-29T03:46:20.544Z,5.02
2017-04-29T03:47:01.218Z,5.12
2017-04-29T03:47:41.804Z,5
2017-04-29T03:48:22.397Z,5.05
2017-04-29T03:49:02.957Z,5.05
2017-04-29T03:49:43.627Z,5.08
2017-04-29T03:50:24.249Z,5.04
2017-04-29T03:51:04.907Z,4.99
2017-04-29T03:51:45.483Z,5.02
2017-04-29T03:52:26.133Z,4.96
2017-04-29T03:53:06.818Z,5.02
2017-04-29T03:53:47.420Z,5
2017-04-29T03:54:27.994Z,5.04
2017-04-29T03:55:09.689Z,5
2017-04-29T03:55:50.260Z,5.02
2017-04-29T03:56:31.567Z,5.05
2017-04-29T03:57:12.141Z,5.08
2017-04-29T03:57:52.796Z,5.05
2017-04-29T03:58:33.474Z,5.11
2017-04-29T03:59:14.099Z,5.12
2017-04-29T03:59:54.753Z,5.07
2017-04-29T04:00:35.403Z,5.11
2017-04-29T04:01:16.092Z,5.05
2017-04-29T04:01:56.714Z,5.07
2017-04-29T04:02:37.341Z,5.07
2017-04-29T04:03:18.928Z,5.07
2017-04-29T04:03:59.590Z,5.08
2017-04-29T04:04:40.247Z,5.07
2017-04-29T04:05:20.897Z,5.05
2017-04-29T04:06:01.548Z,5.05
2017-04-29T04:06:42.200Z,5.11
2017-04-29T04:07:22.863Z,5.11
2017-04-29T04:08:03.497Z,5.07
2017-04-29T04:08:44.160Z,5.07
2017-04-29T04:09:25.843Z,5.05
2017-04-29T04:10:06.471Z,5.1
2017-04-29T04:10:47.153Z,5.11
2017-04-29T04:11:27.792Z,5.1
2017-04-29T04:12:08.442Z,5.1
2017-04-29T04:12:49.080Z,5.11
2017-04-29T04:13:29.667Z,5.08
2017-04-29T04:14:10.303Z,5.1
2017-04-29T04:14:50.933Z,5.07
2017-04-29T04:15:31.501Z,5.07
2017-04-29T04:16:12.139Z,5.14
2017-04-29T04:16:52.790Z,5.05
2017-04-29T04:17:33.343Z,5.1
2017-04-29T04:18:14.000Z,5.12
2017-04-29T04:18:54.636Z,5.1
2017-04-29T04:19:35.219Z,5.07
2017-04-29T04:20:15.871Z,5.11
2017-04-29T04:20:56.499Z,5.11
2017-04-29T04:21:37.127Z,5.14
2017-04-29T04:22:17.713Z,5.04
2017-04-29T04:22:58.358Z,5.07
2017-04-29T04:23:38.976Z,5.07
2017-04-29T04:24:19.572Z,5.1
2017-04-29T04:25:00.169Z,5.07
2017-04-29T04:25:40.864Z,5.07
2017-04-29T04:26:21.420Z,5.14
2017-04-29T04:27:02.093Z,5.12
2017-04-29T04:27:42.684Z,5.11
2017-04-29T04:28:23.370Z,5.1
2017-04-29T04:29:03.955Z,5.08
2017-04-29T04:29:44.603Z,5.08
2017-04-29T04:30:26.224Z,5.14
2017-04-29T04:31:06.801Z,5.08
2017-04-29T04:31:47.353Z,5.14
2017-04-29T04:32:28.013Z,5.14
2017-04-29T04:33:08.614Z,5.05
2017-04-29T04:33:49.206Z,5.11
2017-04-29T04:34:29.791Z,5.12
2017-04-29T04:35:10.428Z,5.07
2017-04-29T04:35:51.020Z,5.1
2017-04-29T04:36:31.617Z,5.11
2017-04-29T04:37:12.174Z,5.14
2017-04-29T04:37:52.838Z,5.15
2017-04-29T04:38:33.424Z,5.1
2017-04-29T04:39:14.123Z,5.2
2017-04-29T04:39:54.709Z,5.2
2017-04-29T04:40:35.361Z,5.17
2017-04-29T04:41:15.935Z,5.15
2017-04-29T04:41:56.510Z,5.15
2017-04-29T04:42:37.066Z,5.17
2017-04-29T04:43:17.637Z,5.18
2017-04-29T04:43:58.246Z,5.15
2017-04-29T04:44:38.938Z,5.26
2017-04-29T04:45:19.520Z,5.18
2017-04-29T04:46:00.163Z,5.21
2017-04-29T04:46:40.732Z,5.18
2017-04-29T04:47:21.345Z,5.17
2017-04-29T04:48:01.944Z,5.2
2017-04-29T04:48:42.561Z,5.2
2017-04-29T04:49:23.159Z,5.23
2017-04-29T04:50:03.747Z,5.25
2017-04-29T04:50:44.375Z,5.26
2017-04-29T04:51:24.964Z,5.21
2017-04-29T04:52:05.568Z,5.25
2017-04-29T04:52:46.159Z,5.25
2017-04-29T04:53:26.733Z,5.36
2017-04-29T04:54:07.382Z,5.33
2017-04-29T04:54:48.023Z,5.33
2017-04-29T04:55:28.674Z,5.33
2017-04-29T04:56:09.350Z,5.33
2017-04-29T04:56:50.004Z,5.35
2017-04-29T04:57:30.657Z,5.36
2017-04-29T04:58:11.341Z,5.38
2017-04-29T04:58:51.932Z,5.38
2017-04-29T04:59:32.494Z,5.46
2017-04-29T05:00:13.152Z,5.46
2017-04-29T05:00:53.741Z,5.51
2017-04-29T05:01:34.334Z,5.47
2017-04-29T05:02:14.967Z,5.59
2017-04-29T05:02:56.577Z,5.5
2017-04-29T05:03:37.244Z,5.56
2017-04-29T05:04:17.887Z,5.5
2017-04-29T05:04:58.555Z,5.5
2017-04-29T05:05:39.216Z,5.48
2017-04-29T05:06:20.886Z,5.66
2017-04-29T05:07:01.517Z,5.65
2017-04-29T05:07:42.193Z,5.64
2017-04-29T05:08:22.828Z,5.68
2017-04-29T05:09:03.469Z,5.59
2017-04-29T05:09:44.128Z,5.66
2017-04-29T05:10:24.794Z,5.71
2017-04-29T05:11:05.439Z,5.57
2017-04-29T05:11:46.084Z,5.66
2017-04-29T05:12:26.751Z,5.69
2017-04-29T05:13:07.331Z,5.66
2017-04-29T05:13:47.933Z,5.71
2017-04-29T05:14:28.487Z,5.76
2017-04-29T05:15:10.070Z,5.76
2017-04-29T05:15:50.766Z,5.87
2017-04-29T05:16:31.378Z,5.83
2017-04-29T05:17:11.947Z,5.8
2017-04-29T05:17:52.583Z,5.84
2017-04-29T05:18:33.255Z,5.93
2017-04-29T05:19:13.890Z,5.93
2017-04-29T05:19:54.545Z,5.91
2017-04-29T05:20:35.196Z,5.87
2017-04-29T05:21:15.851Z,5.9
2017-04-29T05:21:56.502Z,5.9
2017-04-29T05:22:37.154Z,5.93
2017-04-29T05:23:17.818Z,5.9
2017-04-29T05:23:58.459Z,5.93
2017-04-29T05:24:39.110Z,5.91
2017-04-29T05:25:19.751Z,5.94
2017-04-29T05:26:00.383Z,5.99
2017-04-29T05:26:41.141Z,5.99
2017-04-29T05:27:21.806Z,6.01
2017-04-29T05:28:02.363Z,5.98
2017-04-29T05:28:43.133Z,6.02
2017-04-29T05:29:23.812Z,6.01
2017-04-29T05:30:04.510Z,6.12
2017-04-29T05:30:45.064Z,6.08
2017-04-29T05:31:25.822Z,6.07
2017-04-29T05:32:06.527Z,6.12
2017-04-29T05:32:47.220Z,6.17
2017-04-29T05:33:27.981Z,6.17
2017-04-29T05:34:08.732Z,6.26
2017-04-29T05:34:49.486Z,6.26
2017-04-29T05:35:30.243Z,6.27
2017-04-29T05:36:11.000Z,6.26
2017-04-29T05:36:51.758Z,6.3
2017-04-29T05:37:32.472Z,6.26
2017-04-29T05:38:13.123Z,6.35
2017-04-29T05:38:53.831Z,6.31
2017-04-29T05:39:34.583Z,6.41
2017-04-29T05:40:15.335Z,6.36
2017-04-29T05:40:56.091Z,6.31
2017-04-29T05:41:36.850Z,6.48
2017-04-29T05:42:17.601Z,6.49
2017-04-29T05:42:58.358Z,6.46
2017-04-29T05:43:39.119Z,6.54
2017-04-29T05:44:19.869Z,6.56
2017-04-29T05:45:00.438Z,6.6
2017-04-29T05:45:41.193Z,6.63
2017-04-29T05:46:22.052Z,6.54
2017-04-29T05:47:02.804Z,6.6
2017-04-29T05:47:43.577Z,6.64
2017-04-29T05:48:24.360Z,6.6
2017-04-29T05:49:05.056Z,6.6
2017-04-29T05:49:45.631Z,6.6
2017-04-29T05:50:26.362Z,6.67
2017-04-29T05:51:07.088Z,6.77
2017-04-29T05:51:47.875Z,6.79
2017-04-29T05:52:28.448Z,6.78
2017-04-29T05:53:09.239Z,6.79
2017-04-29T05:53:49.992Z,6.87
2017-04-29T05:54:30.688Z,6.79
2017-04-29T05:55:11.292Z,6.88
2017-04-29T05:55:52.007Z,6.93
2017-04-29T05:56:32.707Z,6.93
2017-04-29T05:57:13.399Z,6.95
2017-04-29T05:57:53.976Z,6.87
2017-04-29T05:58:34.714Z,6.87
2017-04-29T05:59:15.485Z,6.95
2017-04-29T05:59:56.244Z,6.99
2017-04-29T06:00:36.994Z,7
2017-04-29T06:01:17.775Z,6.99
2017-04-29T06:01:58.536Z,6.99
2017-04-29T06:02:39.255Z,7.03
2017-04-29T06:03:19.998Z,7.06
2017-04-29T06:04:00.573Z,7.02
2017-04-29T06:04:41.324Z,7.02
2017-04-29T06:05:22.061Z,7.11
2017-04-29T06:06:02.632Z,7.07
2017-04-29T06:06:43.380Z,7.14
2017-04-29T06:07:24.121Z,7.21
2017-04-29T06:08:04.684Z,7.24
2017-04-29T06:08:45.444Z,7.35
2017-04-29T06:09:26.132Z,7.29
2017-04-29T06:10:06.934Z,7.35
2017-04-29T06:10:47.504Z,7.42
2017-04-29T06:11:28.261Z,7.4
2017-04-29T06:12:08.954Z,7.45
2017-04-29T06:12:49.654Z,7.45
2017-04-29T06:13:30.221Z,7.57
2017-04-29T06:14:10.996Z,7.57
2017-04-29T06:14:51.770Z,7.61
2017-04-29T06:15:32.566Z,7.75
2017-04-29T06:16:13.138Z,7.79
2017-04-29T06:16:53.764Z,7.88
2017-04-29T06:17:34.331Z,7.94
2017-04-29T06:18:15.104Z,7.93
2017-04-29T06:18:55.897Z,8
2017-04-29T06:19:36.485Z,8
2017-04-29T06:20:17.056Z,8.05
2017-04-29T06:20:57.703Z,8.01
2017-04-29T06:21:39.424Z,8.03
2017-04-29T06:22:21.040Z,7.95
2017-04-29T06:23:01.610Z,8.08
2017-04-29T06:23:42.271Z,8.1
2017-04-29T06:24:22.891Z,8.1
2017-04-29T06:25:03.453Z,8.19
2017-04-29T06:25:44.163Z,8.26
2017-04-29T06:26:24.823Z,8.2
2017-04-29T06:27:05.388Z,8.28
2017-04-29T06:27:46.048Z,8.28
2017-04-29T06:28:26.719Z,8.27
2017-04-29T06:29:07.416Z,8.27
2017-04-29T06:29:47.985Z,8.31
2017-04-29T06:30:29.199Z,8.31
2017-04-29T06:31:09.846Z,8.3
2017-04-29T06:31:50.411Z,8.26
2017-04-29T06:32:31.088Z,8.26
2017-04-29T06:33:11.639Z,8.26
2017-04-29T06:33:52.314Z,8.34
2017-04-29T06:34:32.991Z,8.38
2017-04-29T06:35:13.620Z,8.42
2017-04-29T06:35:54.269Z,8.46
2017-04-29T06:36:34.924Z,8.45
2017-04-29T06:37:15.570Z,8.38
2017-04-29T06:37:56.223Z,8.38
2017-04-29T06:38:37.397Z,8.42
2017-04-29T06:39:18.050Z,8.33
2017-04-29T06:39:58.701Z,8.26
2017-04-29T06:40:39.379Z,8.28
2017-04-29T06:41:20.004Z,8.26
2017-04-29T06:42:00.663Z,8.37
2017-04-29T06:42:41.359Z,8.42
2017-04-29T06:43:22.015Z,8.49
2017-04-29T06:44:02.709Z,8.53
2017-04-29T06:44:43.288Z,8.6
2017-04-29T06:45:24.031Z,8.66
2017-04-29T06:46:04.729Z,8.71
2017-04-29T06:46:45.423Z,8.78
2017-04-29T06:47:25.989Z,8.79
2017-04-29T06:48:06.638Z,8.81
2017-04-29T06:48:47.313Z,8.82
2017-04-29T06:49:28.068Z,8.89
2017-04-29T06:50:08.821Z,8.82
2017-04-29T06:50:49.454Z,8.95
2017-04-29T06:51:30.124Z,8.94
2017-04-29T06:52:10.861Z,9
2017-04-29T06:52:51.528Z,9.08
2017-04-29T06:53:32.230Z,9.03
2017-04-29T06:54:12.909Z,9.14
2017-04-29T06:54:53.485Z,9.16
2017-04-29T06:55:34.241Z,9.22
2017-04-29T06:56:14.947Z,9.22
2017-04-29T06:56:55.625Z,9.26
2017-04-29T06:57:36.202Z,9.28
2017-04-29T06:58:16.962Z,9.18
2017-04-29T06:58:57.633Z,9.14
2017-04-29T06:59:38.341Z,9.11
2017-04-29T07:00:18.901Z,9.1
2017-04-29T07:01:01.352Z,9.21
2017-04-29T07:01:42.040Z,9.21
2017-04-29T07:02:22.645Z,9.26
2017-04-29T07:03:03.411Z,9.32
2017-04-29T07:03:44.163Z,9.39
2017-04-29T07:04:24.917Z,9.37
2017-04-29T07:05:05.674Z,9.4
2017-04-29T07:05:46.397Z,9.41
2017-04-29T07:06:27.372Z,9.4
2017-04-29T07:07:07.939Z,9.46
2017-04-29T07:07:48.499Z,9.44
2017-04-29T07:08:29.129Z,9.37
2017-04-29T07:09:10.069Z,9.26
2017-04-29T07:09:50.754Z,9.32
2017-04-29T07:10:31.449Z,9.29
2017-04-29T07:11:12.057Z,9.28
2017-04-29T07:11:52.721Z,9.25
2017-04-29T07:12:33.365Z,9.31
2017-04-29T07:13:14.053Z,9.32
2017-04-29T07:13:54.657Z,9.23
2017-04-29T07:14:35.233Z,9.32
2017-04-29T07:15:15.865Z,9.25
2017-04-29T07:15:56.465Z,9.29
2017-04-29T07:16:37.064Z,9.29
2017-04-29T07:17:17.642Z,9.36
2017-04-29T07:17:58.267Z,9.31
2017-04-29T07:18:38.943Z,9.32
2017-04-29T07:19:19.579Z,9.28
2017-04-29T07:20:00.284Z,9.31
2017-04-29T07:20:40.943Z,9.32
2017-04-29T07:21:21.602Z,9.43
2017-04-29T07:22:02.200Z,9.39
2017-04-29T07:22:42.857Z,9.5
2017-04-29T07:23:23.545Z,9.5
2017-04-29T07:24:04.088Z,9.51
2017-04-29T07:24:44.654Z,9.51
2017-04-29T07:25:25.344Z,9.56
2017-04-29T07:26:06.038Z,9.62
2017-04-29T07:26:46.734Z,9.47
2017-04-29T07:27:27.309Z,9.59
2017-04-29T07:28:08.044Z,9.47
2017-04-29T07:28:48.849Z,9.48
2017-04-29T07:29:29.548Z,9.43
2017-04-29T07:30:10.126Z,9.5
2017-04-29T07:30:50.881Z,9.54
2017-04-29T07:31:31.680Z,9.58
2017-04-29T07:32:12.473Z,9.68
2017-04-29T07:32:53.022Z,9.74
2017-04-29T07:33:33.751Z,9.79
2017-04-29T07:34:14.430Z,9.82
2017-04-29T07:34:55.186Z,9.74
2017-04-29T07:35:35.918Z,9.73
2017-04-29T07:36:16.564Z,9.74
2017-04-29T07:36:57.135Z,9.74
2017-04-29T07:37:38.754Z,9.82
2017-04-29T07:38:20.358Z,9.8
2017-04-29T07:39:00.919Z,9.82
2017-04-29T07:39:41.577Z,9.84
2017-04-29T07:40:22.165Z,9.87
2017-04-29T07:41:03.022Z,9.86
2017-04-29T07:41:43.656Z,9.83
2017-04-29T07:42:25.061Z,9.79
2017-04-29T07:43:06.671Z,9.79
2017-04-29T07:43:47.244Z,9.77
2017-04-29T07:44:27.871Z,9.77
2017-04-29T07:45:08.590Z,9.76
2017-04-29T07:45:56.614Z,9.79
2017-04-29T07:46:39.714Z,9.77
2017-04-29T07:47:21.326Z,9.76
2017-04-29T07:48:02.940Z,9.76
2017-04-29T07:48:43.573Z,9.8
2017-04-29T07:49:24.244Z,9.76
2017-04-29T07:50:04.951Z,9.83
2017-04-29T07:50:45.540Z,9.84
2017-04-29T07:51:26.191Z,9.92
2017-04-29T07:52:06.844Z,9.91
2017-04-29T07:52:47.549Z,9.91
2017-04-29T07:53:28.132Z,9.94
2017-04-29T07:54:08.727Z,9.98
2017-04-29T07:54:49.399Z,10.15
2017-04-29T07:55:30.000Z,10.23
2017-04-29T07:56:10.620Z,10.28
2017-04-29T07:56:51.209Z,10.37
2017-04-29T07:57:31.848Z,10.44
2017-04-29T07:58:12.460Z,10.57
2017-04-29T07:58:53.074Z,10.51
2017-04-29T07:59:34.728Z,10.59
2017-04-29T08:00:15.311Z,10.68
2017-04-29T08:00:55.964Z,10.69
2017-04-29T08:01:36.670Z,10.71
2017-04-29T08:02:17.348Z,10.68
2017-04-29T08:02:57.953Z,10.74
2017-04-29T08:03:38.646Z,10.78
2017-04-29T08:04:19.332Z,10.82
2017-04-29T08:04:59.994Z,10.79
2017-04-29T08:05:40.639Z,10.79
2017-04-29T08:06:21.279Z,10.72
2017-04-29T08:07:01.938Z,10.68
2017-04-29T08:07:42.539Z,10.53
2017-04-29T08:08:23.136Z,10.42
2017-04-29T08:09:03.868Z,10.33
2017-04-29T08:09:44.556Z,10.19
2017-04-29T08:10:25.187Z,10.07
2017-04-29T08:11:05.841Z,9.98
2017-04-29T08:11:46.516Z,9.84
2017-04-29T08:12:27.152Z,9.74
2017-04-29T08:13:07.808Z,9.61
2017-04-29T08:13:48.494Z,9.62
2017-04-29T08:14:29.140Z,9.51
2017-04-29T08:15:09.788Z,9.58
2017-04-29T08:15:50.410Z,9.62
2017-04-29T08:16:31.143Z,9.51
2017-04-29T08:17:11.781Z,9.51
2017-04-29T08:17:52.437Z,9.51
2017-04-29T08:18:33.071Z,9.65
2017-04-29T08:19:13.692Z,9.72
2017-04-29T08:19:54.367Z,9.79
2017-04-29T08:20:35.003Z,9.8
2017-04-29T08:21:15.654Z,9.91
2017-04-29T08:21:56.338Z,9.99
2017-04-29T08:22:36.945Z,10.04
2017-04-29T08:23:17.635Z,10.12
2017-04-29T08:23:58.280Z,10.28
2017-04-29T08:24:38.920Z,10.26
2017-04-29T08:25:19.564Z,10.33
2017-04-29T08:26:00.238Z,10.28
2017-04-29T08:26:40.869Z,10.33
2017-04-29T08:27:21.524Z,10.33
2017-04-29T08:28:02.172Z,10.35
2017-04-29T08:28:42.761Z,10.35
2017-04-29T08:29:23.363Z,10.38
2017-04-29T08:30:03.927Z,10.44
2017-04-29T08:30:44.581Z,10.42
2017-04-29T08:31:25.268Z,10.4
2017-04-29T08:32:05.870Z,10.4
2017-04-29T08:32:46.426Z,10.56
2017-04-29T08:33:26.995Z,10.53
2017-04-29T08:34:07.644Z,10.6
2017-04-29T08:34:48.307Z,10.71
2017-04-29T08:35:28.954Z,10.68
2017-04-29T08:36:09.606Z,10.79
2017-04-29T08:36:50.289Z,10.86
2017-04-29T08:37:30.896Z,10.93
2017-04-29T08:38:11.539Z,10.86
2017-04-29T08:38:52.141Z,10.87
2017-04-29T08:39:32.744Z,10.84
2017-04-29T08:40:13.312Z,10.78
2017-04-29T08:40:54.919Z,10.9
2017-04-29T08:41:35.473Z,10.72
2017-04-29T08:42:16.022Z,10.61
2017-04-29T08:42:56.632Z,10.71
2017-04-29T08:43:38.250Z,10.56
2017-04-29T08:44:18.925Z,10.38
2017-04-29T08:44:59.555Z,10.22
2017-04-29T08:45:40.205Z,10.25
2017-04-29T08:46:20.892Z,10.22
2017-04-29T08:47:01.549Z,10.07
2017-04-29T08:47:42.167Z,10.07
2017-04-29T08:48:22.775Z,9.99
2017-04-29T08:49:03.337Z,9.98
2017-04-29T08:49:43.982Z,9.97
2017-04-29T08:50:24.684Z,10.01
2017-04-29T08:51:05.302Z,9.94
2017-04-29T08:51:45.956Z,9.82
2017-04-29T08:52:26.532Z,9.82
2017-04-29T08:53:07.234Z,9.83
2017-04-29T08:53:47.829Z,9.84
2017-04-29T08:54:28.472Z,9.79
2017-04-29T08:55:09.148Z,9.79
2017-04-29T08:55:49.743Z,9.69
2017-04-29T08:56:30.322Z,9.66
2017-04-29T08:57:11.985Z,9.66
2017-04-29T08:57:52.680Z,9.64
2017-04-29T08:58:34.306Z,9.58
2017-04-29T08:59:14.888Z,9.59
2017-04-29T08:59:55.541Z,9.69
2017-04-29T09:00:37.237Z,9.72
2017-04-29T09:01:17.858Z,9.91
2017-04-29T09:01:58.640Z,9.99
2017-04-29T09:02:39.280Z,10.07